Latest Coastal Weather Observations for Cato Island

IDQ60701

Issued at 4:51 pm EST Monday 31 August 2015 (issued every 10 minutes, with the page automatically refreshed every 10 minutes)

About coastal observations | Map of coastal stations | Coastal observations for QLD | Marine services | Other Formats
Station Details ID: 200601 Name: CATO ISLAND Lat: -23.25 Lon: 155.54 Height: 6.3 m
Data from the previous 72 hours. | See also: Recent months for locations in Queensland
Date/Time
EST
Temp

°C
Wind Pressure Rain
since 9am
mm
Weather Cloud Vis
km
Sea
Height
m
Swell
Dir
 
Speed
knots
Gust
knots
hPa Trend Height
m
Period
s
Dir
31/04:30pm 21.0 W 17 21 1013.2 - - - - - - - - -
31/04:00pm 21.5 W 17 22 1013.1 - - - - - - - - -
31/03:30pm 21.6 WSW 18 23 1013.2 - - - - - - - - -
31/03:00pm 22.3 WSW 15 20 1013.1 - - - - - - - - -
31/02:30pm 22.9 WSW 15 18 1013.4 - - - - - - - - -
31/02:00pm 22.8 WSW 14 17 1013.5 - - - - - - - - -
31/01:30pm 22.5 WSW 15 19 1013.7 - - - - - - - - -
31/01:00pm 23.0 WSW 14 17 1014.0 - - - - - - - - -
31/12:30pm 23.1 WSW 13 16 1014.2 - - - - - - - - -
31/12:00pm 23.4 WSW 12 16 1014.3 - - - - - - - - -
31/11:30am 23.6 WSW 12 14 1014.6 - - - - - - - - -
31/11:00am 23.8 SW 11 14 1014.9 - - - - - - - - -
31/10:30am 23.3 SW 11 13 1015.3 - - - - - - - - -
31/10:00am 23.6 SW 11 17 1015.5 - - - - - - - - -
31/09:30am 23.2 WSW 13 16 1015.9 - - - - - - - - -
31/09:00am 22.9 SW 11 14 1016.0 - - - - - - - - -
31/08:30am 21.9 SW 11 16 1015.9 - - - - - - - - -
31/08:00am 21.8 S 10 14 1015.7 - - - - - - - - -
31/07:30am 21.5 S 10 13 1015.4 - - - - - - - - -
31/07:00am 21.2 S 11 13 1015.3 - - - - - - - - -
31/06:30am 21.1 S 8 11 1015.0 - - - - - - - - -
31/06:00am 20.8 S 9 13 1014.8 - - - - - - - - -
31/05:30am 20.7 S 12 14 1014.5 - - - - - - - - -
31/05:00am 20.5 SSW 10 13 1014.2 - - - - - - - - -
31/04:30am 20.8 S 12 14 1014.1 - - - - - - - - -
31/04:00am 20.7 SSW 10 14 1014.1 - - - - - - - - -
31/03:30am 20.9 SSW 12 15 1013.9 - - - - - - - - -
31/03:00am 21.0 SSW 14 16 1014.0 - - - - - - - - -
31/02:30am 21.0 SSW 14 17 1014.2 - - - - - - - - -
31/02:00am 21.3 SSW 13 16 1014.3 - - - - - - - - -
31/01:30am 21.3 SW 15 18 1014.4 - - - - - - - - -
31/01:00am 21.2 SW 11 14 1014.6 - - - - - - - - -
31/12:30am 21.1 SSW 8 10 1014.9 - - - - - - - - -
31/12:00am 21.2 S 10 12 1015.0 - - - - - - - - -
 
Date/Time
EST
Temp

°C
Wind Pressure Rain
since 9am
mm
Weather Cloud Vis
km
Sea
Height
m
Swell
Dir
 
Speed
knots
Gust
knots
hPa Trend Height
m
Period
s
Dir
30/11:30pm 21.3 S 6 10 1015.2 - - - - - - - - -
30/11:00pm 21.5 SSW 1 3 1015.4 - - - - - - - - -
30/10:30pm 21.0 CALM 0 3 1015.4 - - - - - - - - -
30/10:00pm 21.3 CALM 0 2 1015.6 - - - - - - - - -
30/09:30pm 21.2 CALM 0 2 1015.6 - - - - - - - - -
30/09:00pm 21.4 CALM 0 1 1015.7 - - - - - - - - -
30/08:30pm 21.2 CALM 0 2 1015.5 - - - - - - - - -
30/08:00pm 21.3 CALM 0 1 1015.4 - - - - - - - - -
30/07:30pm 20.7 CALM 0 1 1015.2 - - - - - - - - -
30/07:00pm 20.7 CALM 0 2 1014.7 - - - - - - - - -
30/06:30pm 20.9 CALM 0 2 1014.4 - - - - - - - - -
30/06:00pm 21.1 S 1 7 1014.1 - - - - - - - - -
30/05:30pm 21.1 SE 4 5 1013.9 - - - - - - - - -
30/05:00pm 21.1 SSE 4 6 1013.6 - - - - - - - - -
30/04:30pm 21.3 ESE 7 9 1013.0 - - - - - - - - -
30/04:00pm 21.0 ESE 4 4 1013.5 - - - - - - - - -
30/03:30pm 21.2 S 8 10 1013.8 - - - - - - - - -
30/03:00pm 21.0 SSW 11 13 1014.1 - - - - - - - - -
30/02:30pm 21.0 S 10 12 1014.1 - - - - - - - - -
30/02:00pm 21.0 SSW 6 8 1014.4 - - - - - - - - -
30/01:30pm 20.8 W 5 7 1014.8 - - - - - - - - -
30/01:00pm 20.7 SSW 10 14 1015.0 - - - - - - - - -
30/12:30pm 20.5 S 15 17 1015.2 - - - - - - - - -
30/12:08pm 21.0 S 21 24 1015.3 - - - - - - - - -
30/12:00pm 22.0 SSW 17 21 1015.3 - - - - - - - - -
30/11:59am 22.4 SSW 15 18 1015.4 - - - - - - - - -
30/11:30am 24.1 NW 7 8 1015.8 - - - - - - - - -
30/11:00am 23.9 W 7 9 1016.3 - - - - - - - - -
30/10:30am 23.9 WSW 8 13 1016.5 - - - - - - - - -
30/10:00am 24.5 W 10 12 1016.9 - - - - - - - - -
30/09:30am 23.0 WNW 9 11 1017.1 - - - - - - - - -
30/09:00am 22.7 NW 10 12 1017.1 - - - - - - - - -
30/08:30am 20.8 NNW 10 14 1017.2 - - - - - - - - -
30/08:00am 21.3 NW 14 17 1017.2 - - - - - - - - -
30/07:30am 20.8 NW 4 8 1016.8 - - - - - - - - -
30/07:00am 19.7 WNW 15 25 1016.8 - - - - - - - - -
30/06:56am 20.1 W 15 25 1016.8 - - - - - - - - -
30/06:30am 21.1 N 6 8 1016.5 - - - - - - - - -
30/06:00am 20.8 N 10 15 1016.3 - - - - - - - - -
30/05:30am 20.6 NNE 5 6 1016.0 - - - - - - - - -
30/05:00am 20.3 NNE 6 7 1015.9 - - - - - - - - -
30/04:30am 20.2 ENE 5 7 1015.8 - - - - - - - - -
30/04:00am 19.8 NE 8 9 1015.7 - - - - - - - - -
30/03:30am 19.6 N 9 11 1016.2 - - - - - - - - -
30/03:00am 20.4 N 10 13 1016.2 - - - - - - - - -
30/02:30am 21.0 NNE 14 17 1016.2 - - - - - - - - -
30/02:00am 21.6 NE 12 14 1016.5 - - - - - - - - -
30/01:30am 21.5 NE 14 16 1016.8 - - - - - - - - -
30/01:00am 21.9 ENE 11 13 1017.3 - - - - - - - - -
30/12:30am 21.7 NE 12 14 1017.8 - - - - - - - - -
30/12:00am 21.6 NE 12 14 1018.1 - - - - - - - - -
 
Date/Time
EST
Temp

°C
Wind Pressure Rain
since 9am
mm
Weather Cloud Vis
km
Sea
Height
m
Swell
Dir
 
Speed
knots
Gust
knots
hPa Trend Height
m
Period
s
Dir
29/11:30pm 21.6 NE 12 14 1018.3 - - - - - - - - -
29/11:00pm 21.6 ENE 12 13 1018.4 - - - - - - - - -
29/10:30pm 21.9 ENE 11 14 1018.4 - - - - - - - - -
29/10:00pm 22.0 ENE 12 14 1018.6 - - - - - - - - -
29/09:30pm 22.0 ENE 11 13 1018.7 - - - - - - - - -
29/09:00pm 21.8 E 10 13 1018.7 - - - - - - - - -
29/08:30pm 22.0 E 9 11 1018.6 - - - - - - - - -
29/08:00pm 21.9 ENE 9 11 1018.8 - - - - - - - - -
29/07:30pm 21.8 E 9 11 1018.6 - - - - - - - - -
29/07:00pm 21.8 E 8 10 1018.6 - - - - - - - - -
29/06:30pm 21.9 E 8 9 1018.5 - - - - - - - - -
29/06:00pm 21.9 E 8 9 1018.3 - - - - - - - - -
29/05:30pm 21.9 E 8 10 1018.0 - - - - - - - - -
29/05:00pm 22.0 E 7 9 1018.0 - - - - - - - - -
29/04:30pm 22.2 E 8 10 1017.9 - - - - - - - - -
29/04:00pm 22.6 E 8 9 1017.8 - - - - - - - - -
29/03:30pm 23.0 E 8 10 1018.0 - - - - - - - - -
29/03:00pm 23.1 ENE 6 8 1018.2 - - - - - - - - -
29/02:30pm 23.0 ENE 8 9 1018.2 - - - - - - - - -
29/02:00pm 23.1 E 8 11 1018.5 - - - - - - - - -
29/01:30pm 23.4 ENE 9 11 1018.8 - - - - - - - - -
29/01:00pm 23.4 E 8 9 1019.0 - - - - - - - - -
29/12:30pm 23.9 ENE 8 10 1019.4 - - - - - - - - -
29/12:00pm 23.8 ENE 9 11 1019.9 - - - - - - - - -
29/11:30am 23.3 ENE 9 11 1020.3 - - - - - - - - -
29/11:00am 23.4 ENE 9 11 1020.7 - - - - - - - - -
29/10:30am 23.5 ENE 10 12 1021.1 - - - - - - - - -
29/10:00am 23.2 ENE 8 10 1021.3 - - - - - - - - -
29/09:30am 23.1 E 8 10 1021.5 - - - - - - - - -
29/09:00am 23.1 ENE 8 9 1021.5 - - - - - - - - -
29/08:30am 22.6 ENE 7 9 1021.7 - - - - - - - - -
29/08:00am 22.3 ENE 8 9 1021.4 - - - - - - - - -
29/07:30am 22.4 E 6 8 1021.1 - - - - - - - - -
29/07:00am 22.2 E 6 8 1020.9 - - - - - - - - -
29/06:30am 21.5 E 5 7 1020.7 - - - - - - - - -
29/06:00am 20.6 NE 6 8 1020.4 - - - - - - - - -
29/05:30am 20.9 ENE 6 7 1020.1 - - - - - - - - -
29/05:00am 21.0 ENE 7 8 1019.6 - - - - - - - - -
29/04:30am 20.7 ENE 6 8 1019.4 - - - - - - - - -
29/04:00am 20.9 ENE 7 8 1019.1 - - - - - - - - -
29/03:30am 20.9 ENE 8 9 1019.2 - - - - - - - - -
29/03:00am 20.7 NE 8 9 1019.4 - - - - - - - - -
29/02:30am 21.0 NE 9 11 1019.6 - - - - - - - - -
29/02:00am 20.8 NE 10 12 1019.8 - - - - - - - - -
29/01:30am 21.0 NE 8 9 1020.0 - - - - - - - - -
29/01:00am 21.0 NE 6 7 1020.5 - - - - - - - - -
29/12:30am 20.9 NE 1 3 1020.7 - - - - - - - - -
29/12:00am 21.0 CALM 0 2 1021.1 - - - - - - - - -
 
Date/Time
EST
Temp

°C
Wind Pressure Rain
since 9am
mm
Weather Cloud Vis
km
Sea
Height
m
Swell
Dir
 
Speed
knots
Gust
knots
hPa Trend Height
m
Period
s
Dir
28/11:30pm 21.1 NE 1 2 1021.2 - - - - - - - - -
28/11:00pm 21.2 CALM 0 2 1021.3 - - - - - - - - -
28/10:30pm 21.3 NE 1 3 1021.2 - - - - - - - - -
28/10:00pm 21.4 NE 1 3 1020.9 - - - - - - - - -
28/09:30pm 21.4 ENE 2 3 1021.0 - - - - - - - - -
28/09:00pm 21.5 NE 1 3 1020.9 - - - - - - - - -
28/08:30pm 21.6 ENE 1 3 1020.7 - - - - - - - - -
28/08:00pm 21.7 ENE 1 3 1020.3 - - - - - - - - -
28/07:30pm 21.5 NE 1 3 1019.9 - - - - - - - - -
28/07:00pm 21.5 CALM 0 3 1019.7 - - - - - - - - -
28/06:30pm 21.5 ENE 1 3 1019.5 - - - - - - - - -
28/06:00pm 21.5 NE 7 12 1019.4 - - - - - - - - -
28/05:30pm 21.7 NE 11 13 1019.2 - - - - - - - - -
28/05:00pm 22.1 NE 12 13 1018.9 - - - - - - - - -

Other Formats:

Comma delimited format used in spreadsheet applications
http://www.bom.gov.au/fwo/IDQ60701/IDQ60701.94394.axf

JavaScript Object Notation format (JSON) in row-major order
http://www.bom.gov.au/fwo/IDQ60701/IDQ60701.94394.json